createdAt,value
2018-09-13T16:14:32.621Z,18.30
2018-09-13T16:17:01.728Z,18.30
2018-09-13T16:19:30.297Z,18.30
2018-09-13T16:21:58.756Z,18.40
2018-09-13T16:24:27.200Z,18.40
2018-09-13T16:26:55.706Z,18.40
2018-09-13T16:29:24.141Z,18.30
2018-09-13T16:31:52.714Z,18.30
2018-09-13T16:34:21.201Z,18.40
2018-09-13T16:36:57.413Z,18.30
2018-09-13T16:39:31.337Z,18.30
2018-09-13T16:42:05.254Z,18.30
2018-09-13T16:44:39.027Z,18.30
2018-09-13T16:47:12.824Z,18.40
2018-09-13T16:49:41.550Z,18.30
2018-09-13T16:52:10.040Z,18.30
2018-09-13T16:54:38.802Z,18.30
2018-09-13T16:57:07.257Z,18.20
2018-09-13T16:59:35.726Z,18.10
2018-09-13T17:02:04.219Z,18.10
2018-09-13T17:04:32.679Z,18.10
2018-09-13T17:07:01.206Z,18.00
2018-09-13T17:09:29.655Z,17.90
2018-09-13T17:11:58.225Z,18.00
2018-09-13T17:14:26.686Z,18.00
2018-09-13T17:16:56.777Z,18.00
2018-09-13T17:19:25.453Z,18.10
2018-09-13T17:21:54.781Z,17.90
2018-09-13T17:24:23.301Z,17.80
2018-09-13T17:26:51.765Z,17.80
2018-09-13T17:29:20.253Z,17.80
2018-09-13T17:31:48.703Z,17.80
2018-09-13T17:34:17.943Z,17.80
2018-09-13T17:36:46.503Z,17.80
2018-09-13T17:39:15.589Z,17.80
2018-09-13T17:41:44.436Z,17.70
2018-09-13T17:44:12.938Z,17.70
2018-09-13T17:46:41.920Z,17.70
2018-09-13T17:49:11.589Z,17.60
2018-09-13T17:51:40.036Z,17.60
2018-09-13T17:54:08.505Z,17.60
2018-09-13T17:56:37.218Z,17.50
2018-09-13T17:59:05.738Z,17.40
2018-09-13T18:01:34.386Z,17.50
2018-09-13T18:04:02.892Z,17.50
2018-09-13T18:06:31.499Z,17.50
2018-09-13T18:08:59.987Z,17.50
2018-09-13T18:11:28.440Z,17.40
2018-09-13T18:13:57.370Z,17.40
2018-09-13T18:16:25.785Z,17.30
2018-09-13T18:18:55.261Z,17.30
2018-09-13T18:21:23.721Z,17.30
2018-09-13T18:23:52.212Z,17.20
2018-09-13T18:26:20.665Z,17.20
2018-09-13T18:28:49.212Z,17.10
2018-09-13T18:31:17.680Z,17.00
2018-09-13T18:33:46.151Z,17.00
2018-09-13T18:36:14.622Z,17.00
2018-09-13T18:38:43.202Z,16.90
2018-09-13T18:41:11.686Z,16.90
2018-09-13T18:43:40.121Z,16.80
2018-09-13T18:46:08.626Z,16.80
2018-09-13T18:48:37.101Z,16.70
2018-09-13T18:51:05.586Z,16.80
2018-09-13T18:53:34.064Z,16.70
2018-09-13T18:56:02.596Z,16.60
2018-09-13T18:58:31.158Z,16.60
2018-09-13T19:00:59.617Z,16.50
2018-09-13T19:03:28.098Z,16.40
2018-09-13T19:05:56.590Z,16.40
2018-09-13T19:08:25.037Z,16.20
2018-09-13T19:10:53.515Z,16.10
2018-09-13T19:13:22.033Z,16.10
2018-09-13T19:15:50.593Z,16.10
2018-09-13T19:18:19.004Z,16.00
2018-09-13T19:20:47.474Z,16.00
2018-09-13T19:23:15.947Z,15.90
2018-09-13T19:25:44.397Z,15.90
2018-09-13T19:28:12.902Z,15.80
2018-09-13T19:30:41.401Z,15.80
2018-09-13T19:33:09.913Z,15.70
2018-09-13T19:35:38.410Z,15.60
2018-09-13T19:38:07.853Z,15.50
2018-09-13T19:40:36.313Z,15.50
2018-09-13T19:43:04.989Z,15.40
2018-09-13T19:45:33.474Z,15.30
2018-09-13T19:48:01.947Z,15.20
2018-09-13T19:50:30.496Z,15.20
2018-09-13T19:52:58.890Z,15.20
2018-09-13T19:55:27.347Z,15.10
2018-09-13T19:57:55.860Z,15.10
2018-09-13T20:00:24.381Z,15.00
2018-09-13T20:02:52.878Z,15.00
2018-09-13T20:05:21.333Z,14.90
2018-09-13T20:07:49.778Z,14.80
2018-09-13T20:10:18.295Z,14.90
2018-09-13T20:12:46.887Z,14.80
2018-09-13T20:15:15.337Z,14.80
2018-09-13T20:17:43.797Z,14.80
2018-09-13T20:20:13.005Z,14.70
2018-09-13T20:22:41.520Z,14.70
2018-09-13T20:25:09.985Z,14.70
2018-09-13T20:27:38.425Z,14.70
2018-09-13T20:30:07.320Z,14.60
2018-09-13T20:32:35.887Z,14.50
2018-09-13T20:35:04.409Z,14.50
2018-09-13T20:37:32.878Z,14.40
2018-09-13T20:40:01.378Z,14.30
2018-09-13T20:42:29.838Z,14.30
2018-09-13T20:44:58.299Z,14.20
2018-09-13T20:47:26.753Z,14.20
2018-09-13T20:49:55.239Z,14.20
2018-09-13T20:52:23.687Z,14.20
2018-09-13T20:54:52.162Z,14.10
2018-09-13T20:57:20.663Z,14.10
2018-09-13T20:59:49.084Z,14.00
2018-09-13T21:02:17.553Z,13.90
2018-09-13T21:04:46.020Z,13.90
2018-09-13T21:07:14.456Z,13.90
2018-09-13T21:09:42.910Z,13.80
2018-09-13T21:12:11.417Z,13.80
2018-09-13T21:14:39.948Z,13.60
2018-09-13T21:17:08.398Z,13.50
2018-09-13T21:19:36.863Z,13.40
2018-09-13T21:22:05.351Z,13.40
2018-09-13T21:24:33.911Z,13.30
2018-09-13T21:27:02.311Z,13.30
2018-09-13T21:29:30.822Z,13.30
2018-09-13T21:31:59.254Z,13.30
2018-09-13T21:34:27.714Z,13.30
2018-09-13T21:36:56.172Z,13.30
2018-09-13T21:39:24.663Z,13.30
2018-09-13T21:41:53.137Z,13.20
2018-09-13T21:44:21.600Z,13.10
2018-09-13T21:46:50.062Z,13.20
2018-09-13T21:49:18.504Z,13.10
2018-09-13T21:51:47.004Z,13.00
2018-09-13T21:54:15.470Z,12.90
2018-09-13T21:56:43.910Z,12.80
2018-09-13T21:59:12.419Z,12.80
2018-09-13T22:01:40.887Z,12.80
2018-09-13T22:04:09.341Z,12.70
2018-09-13T22:06:37.790Z,12.80
2018-09-13T22:09:09.396Z,12.80
2018-09-13T22:11:39.522Z,12.80
2018-09-13T22:14:07.971Z,12.70
2018-09-13T22:16:36.405Z,12.70
2018-09-13T22:19:11.392Z,12.70
2018-09-13T22:21:39.835Z,12.70
2018-09-13T22:24:08.316Z,12.60
2018-09-13T22:26:36.785Z,12.60
2018-09-13T22:29:05.749Z,12.60
2018-09-13T22:31:35.134Z,12.60
2018-09-13T22:34:06.568Z,12.50
2018-09-13T22:36:36.201Z,12.50
2018-09-13T22:39:07.864Z,12.50
2018-09-13T22:41:36.699Z,12.40
2018-09-13T22:44:05.203Z,12.20
2018-09-13T22:46:33.690Z,12.10
2018-09-13T22:49:02.175Z,12.10
2018-09-13T22:51:30.633Z,12.00
2018-09-13T22:53:59.117Z,12.00
2018-09-13T22:56:27.641Z,12.00
2018-09-13T22:58:56.077Z,12.00
2018-09-13T23:01:24.570Z,12.00
2018-09-13T23:03:53.006Z,12.10
2018-09-13T23:06:21.465Z,12.10
2018-09-13T23:08:49.910Z,12.10
2018-09-13T23:11:18.376Z,12.00
2018-09-13T23:13:46.856Z,11.90
2018-09-13T23:16:15.331Z,11.80
2018-09-13T23:18:43.787Z,11.80
2018-09-13T23:21:12.260Z,11.80
2018-09-13T23:23:40.692Z,11.90
2018-09-13T23:26:09.170Z,12.00
2018-09-13T23:28:38.189Z,12.10
2018-09-13T23:31:06.719Z,12.10
2018-09-13T23:33:35.504Z,12.10
2018-09-13T23:36:03.970Z,12.10
2018-09-13T23:38:32.473Z,12.20
2018-09-13T23:41:00.926Z,12.30
2018-09-13T23:43:29.389Z,12.30
2018-09-13T23:45:57.865Z,12.30
2018-09-13T23:48:26.333Z,12.30
2018-09-13T23:50:54.780Z,12.30
2018-09-13T23:53:23.263Z,12.30
2018-09-13T23:55:51.730Z,12.20
2018-09-13T23:58:20.199Z,12.30
